sensor_id;sensor_type;location;lat;lon;timestamp;temperature;humidity
13389;DHT22;6764;53.250;10.410;2023-06-22T00:02:25;22.50;99.90
13389;DHT22;6764;53.250;10.410;2023-06-22T00:04:50;22.50;99.90
13389;DHT22;6764;53.250;10.410;2023-06-22T00:07:16;22.50;99.90
13389;DHT22;6764;53.250;10.410;2023-06-22T00:09:42;22.40;99.90
13389;DHT22;6764;53.250;10.410;2023-06-22T00:12:07;22.30;99.90
13389;DHT22;6764;53.250;10.410;2023-06-22T00:14:33;22.20;99.90
13389;DHT22;6764;53.250;10.410;2023-06-22T00:16:59;22.10;99.90
13389;DHT22;6764;53.250;10.410;2023-06-22T00:19:24;22.10;99.90
13389;DHT22;6764;53.250;10.410;2023-06-22T00:21:50;22.00;99.90
13389;DHT22;6764;53.250;10.410;2023-06-22T00:24:20;22.00;99.90
13389;DHT22;6764;53.250;10.410;2023-06-22T00:26:47;21.90;99.90
13389;DHT22;6764;53.250;10.410;2023-06-22T00:29:13;22.00;99.90
13389;DHT22;6764;53.250;10.410;2023-06-22T00:31:38;22.00;99.90
13389;DHT22;6764;53.250;10.410;2023-06-22T00:34:04;21.90;99.90
13389;DHT22;6764;53.250;10.410;2023-06-22T00:36:32;21.80;99.90
13389;DHT22;6764;53.250;10.410;2023-06-22T00:38:57;21.80;99.90
13389;DHT22;6764;53.250;10.410;2023-06-22T00:41:23;21.80;99.90
13389;DHT22;6764;53.250;10.410;2023-06-22T00:43:48;21.80;99.90
13389;DHT22;6764;53.250;10.410;2023-06-22T00:46:14;21.80;99.90
13389;DHT22;6764;53.250;10.410;2023-06-22T00:48:40;21.80;99.90
13389;DHT22;6764;53.250;10.410;2023-06-22T00:51:10;21.80;99.90
13389;DHT22;6764;53.250;10.410;2023-06-22T00:53:35;21.80;99.90
13389;DHT22;6764;53.250;10.410;2023-06-22T00:56:05;21.80;99.90
13389;DHT22;6764;53.250;10.410;2023-06-22T00:58:31;21.80;99.90
13389;DHT22;6764;53.250;10.410;2023-06-22T01:00:57;21.80;99.90
13389;DHT22;6764;53.250;10.410;2023-06-22T01:03:23;21.70;99.90
13389;DHT22;6764;53.250;10.410;2023-06-22T01:05:50;21.70;99.90
13389;DHT22;6764;53.250;10.410;2023-06-22T01:08:33;21.70;99.90
13389;DHT22;6764;53.250;10.410;2023-06-22T01:16:11;21.70;99.90
13389;DHT22;6764;53.250;10.410;2023-06-22T01:18:41;21.70;99.90
13389;DHT22;6764;53.250;10.410;2023-06-22T01:21:13;21.70;99.90
13389;DHT22;6764;53.250;10.410;2023-06-22T01:26:38;21.60;99.90
13389;DHT22;6764;53.250;10.410;2023-06-22T01:29:04;21.60;99.90
13389;DHT22;6764;53.250;10.410;2023-06-22T01:31:31;21.60;99.90
13389;DHT22;6764;53.250;10.410;2023-06-22T01:34:00;21.60;99.90
13389;DHT22;6764;53.250;10.410;2023-06-22T01:36:27;21.60;99.90
13389;DHT22;6764;53.250;10.410;2023-06-22T01:38:53;21.60;99.90
13389;DHT22;6764;53.250;10.410;2023-06-22T01:41:24;21.70;99.90
13389;DHT22;6764;53.250;10.410;2023-06-22T01:43:50;21.60;99.90
13389;DHT22;6764;53.250;10.410;2023-06-22T01:46:18;21.60;99.90
13389;DHT22;6764;53.250;10.410;2023-06-22T01:48:46;21.60;99.90
13389;DHT22;6764;53.250;10.410;2023-06-22T01:51:12;21.50;99.90
13389;DHT22;6764;53.250;10.410;2023-06-22T01:53:37;21.50;99.90
13389;DHT22;6764;53.250;10.410;2023-06-22T01:56:03;21.40;99.90
13389;DHT22;6764;53.250;10.410;2023-06-22T01:58:30;21.40;99.90
13389;DHT22;6764;53.250;10.410;2023-06-22T02:01:11;21.40;99.90
13389;DHT22;6764;53.250;10.410;2023-06-22T02:03:42;21.30;99.90
13389;DHT22;6764;53.250;10.410;2023-06-22T02:06:23;21.30;99.90
13389;DHT22;6764;53.250;10.410;2023-06-22T02:08:55;21.40;99.90
13389;DHT22;6764;53.250;10.410;2023-06-22T02:11:22;21.40;99.90
13389;DHT22;6764;53.250;10.410;2023-06-22T02:13:48;21.40;99.90
13389;DHT22;6764;53.250;10.410;2023-06-22T02:16:15;21.40;99.90
13389;DHT22;6764;53.250;10.410;2023-06-22T02:18:51;21.40;99.90
13389;DHT22;6764;53.250;10.410;2023-06-22T02:21:20;21.50;99.90
13389;DHT22;6764;53.250;10.410;2023-06-22T02:23:46;21.40;99.90
13389;DHT22;6764;53.250;10.410;2023-06-22T02:26:13;21.40;99.90
13389;DHT22;6764;53.250;10.410;2023-06-22T02:28:38;21.30;99.90
13389;DHT22;6764;53.250;10.410;2023-06-22T02:31:04;21.30;99.90
13389;DHT22;6764;53.250;10.410;2023-06-22T02:33:30;21.30;99.90
13389;DHT22;6764;53.250;10.410;2023-06-22T02:35:55;21.30;99.90
13389;DHT22;6764;53.250;10.410;2023-06-22T02:38:21;21.40;99.90
13389;DHT22;6764;53.250;10.410;2023-06-22T02:40:48;21.30;99.90
13389;DHT22;6764;53.250;10.410;2023-06-22T02:43:14;21.30;99.90
13389;DHT22;6764;53.250;10.410;2023-06-22T02:45:40;21.10;99.90
13389;DHT22;6764;53.250;10.410;2023-06-22T02:48:05;21.10;99.90
13389;DHT22;6764;53.250;10.410;2023-06-22T02:50:31;21.00;99.90
13389;DHT22;6764;53.250;10.410;2023-06-22T02:52:56;21.00;99.90
13389;DHT22;6764;53.250;10.410;2023-06-22T02:55:23;21.00;99.90
13389;DHT22;6764;53.250;10.410;2023-06-22T02:57:49;21.00;99.90
13389;DHT22;6764;53.250;10.410;2023-06-22T03:00:18;21.00;99.90
13389;DHT22;6764;53.250;10.410;2023-06-22T03:02:45;20.90;99.90
13389;DHT22;6764;53.250;10.410;2023-06-22T03:05:11;20.90;99.90
13389;DHT22;6764;53.250;10.410;2023-06-22T03:07:42;20.90;99.90
13389;DHT22;6764;53.250;10.410;2023-06-22T03:10:09;20.90;99.90
13389;DHT22;6764;53.250;10.410;2023-06-22T03:12:35;20.80;99.90
13389;DHT22;6764;53.250;10.410;2023-06-22T03:15:01;20.80;99.90
13389;DHT22;6764;53.250;10.410;2023-06-22T03:17:27;20.90;99.90
13389;DHT22;6764;53.250;10.410;2023-06-22T03:19:52;20.90;99.90
13389;DHT22;6764;53.250;10.410;2023-06-22T03:22:18;21.00;99.90
13389;DHT22;6764;53.250;10.410;2023-06-22T03:24:43;20.90;99.90
13389;DHT22;6764;53.250;10.410;2023-06-22T03:27:09;20.80;99.90
13389;DHT22;6764;53.250;10.410;2023-06-22T03:29:35;20.70;99.90
13389;DHT22;6764;53.250;10.410;2023-06-22T03:32:00;20.80;99.90
13389;DHT22;6764;53.250;10.410;2023-06-22T03:34:26;20.80;99.90
13389;DHT22;6764;53.250;10.410;2023-06-22T03:36:52;20.80;99.90
13389;DHT22;6764;53.250;10.410;2023-06-22T03:39:17;21.00;99.90
13389;DHT22;6764;53.250;10.410;2023-06-22T03:41:43;21.00;99.90
13389;DHT22;6764;53.250;10.410;2023-06-22T03:44:09;21.00;99.90
13389;DHT22;6764;53.250;10.410;2023-06-22T03:46:37;20.90;99.90
13389;DHT22;6764;53.250;10.410;2023-06-22T03:49:03;20.80;99.90
13389;DHT22;6764;53.250;10.410;2023-06-22T03:51:30;20.80;99.90
13389;DHT22;6764;53.250;10.410;2023-06-22T03:53:55;20.80;99.90
13389;DHT22;6764;53.250;10.410;2023-06-22T03:56:21;20.90;99.90
13389;DHT22;6764;53.250;10.410;2023-06-22T03:58:47;20.90;99.90
13389;DHT22;6764;53.250;10.410;2023-06-22T04:01:12;21.00;99.90
13389;DHT22;6764;53.250;10.410;2023-06-22T04:03:38;21.00;99.90
13389;DHT22;6764;53.250;10.410;2023-06-22T04:06:04;21.10;99.90
13389;DHT22;6764;53.250;10.410;2023-06-22T04:08:30;21.20;99.90
13389;DHT22;6764;53.250;10.410;2023-06-22T04:10:56;21.30;99.90
13389;DHT22;6764;53.250;10.410;2023-06-22T04:13:22;21.40;99.90
13389;DHT22;6764;53.250;10.410;2023-06-22T04:15:47;21.50;99.90
13389;DHT22;6764;53.250;10.410;2023-06-22T04:18:13;21.50;99.90
13389;DHT22;6764;53.250;10.410;2023-06-22T04:20:39;21.60;99.90
13389;DHT22;6764;53.250;10.410;2023-06-22T04:23:05;21.50;99.90
13389;DHT22;6764;53.250;10.410;2023-06-22T04:25:30;21.60;99.90
13389;DHT22;6764;53.250;10.410;2023-06-22T04:27:56;21.60;99.90
13389;DHT22;6764;53.250;10.410;2023-06-22T04:30:22;21.70;99.90
13389;DHT22;6764;53.250;10.410;2023-06-22T04:32:47;21.80;99.90
13389;DHT22;6764;53.250;10.410;2023-06-22T04:35:22;21.80;99.90
13389;DHT22;6764;53.250;10.410;2023-06-22T04:37:48;21.90;99.90
13389;DHT22;6764;53.250;10.410;2023-06-22T04:40:15;22.00;99.90
13389;DHT22;6764;53.250;10.410;2023-06-22T04:42:41;22.20;99.90
13389;DHT22;6764;53.250;10.410;2023-06-22T04:45:19;22.20;99.90
13389;DHT22;6764;53.250;10.410;2023-06-22T04:47:45;22.20;99.90
13389;DHT22;6764;53.250;10.410;2023-06-22T04:50:12;22.30;99.90
13389;DHT22;6764;53.250;10.410;2023-06-22T04:52:37;22.30;99.90
13389;DHT22;6764;53.250;10.410;2023-06-22T04:55:03;22.40;99.90
13389;DHT22;6764;53.250;10.410;2023-06-22T04:57:29;22.30;99.90
13389;DHT22;6764;53.250;10.410;2023-06-22T05:00:01;22.30;99.90
13389;DHT22;6764;53.250;10.410;2023-06-22T05:02:40;22.30;99.90
13389;DHT22;6764;53.250;10.410;2023-06-22T05:05:06;22.40;99.90
13389;DHT22;6764;53.250;10.410;2023-06-22T05:07:35;22.40;99.90
13389;DHT22;6764;53.250;10.410;2023-06-22T05:10:04;22.40;99.90
13389;DHT22;6764;53.250;10.410;2023-06-22T05:12:30;22.50;99.90
13389;DHT22;6764;53.250;10.410;2023-06-22T05:14:56;22.60;99.90
13389;DHT22;6764;53.250;10.410;2023-06-22T05:17:22;22.70;99.90
13389;DHT22;6764;53.250;10.410;2023-06-22T05:19:48;22.90;99.90
13389;DHT22;6764;53.250;10.410;2023-06-22T05:22:15;23.00;99.90
13389;DHT22;6764;53.250;10.410;2023-06-22T05:24:41;23.10;99.90
13389;DHT22;6764;53.250;10.410;2023-06-22T05:27:07;23.20;99.90
13389;DHT22;6764;53.250;10.410;2023-06-22T05:29:32;23.20;99.90
13389;DHT22;6764;53.250;10.410;2023-06-22T05:31:58;23.30;99.90
13389;DHT22;6764;53.250;10.410;2023-06-22T05:34:23;23.30;99.90
13389;DHT22;6764;53.250;10.410;2023-06-22T05:36:49;23.40;99.90
13389;DHT22;6764;53.250;10.410;2023-06-22T05:39:15;23.50;99.90
13389;DHT22;6764;53.250;10.410;2023-06-22T05:41:41;23.50;99.90
13389;DHT22;6764;53.250;10.410;2023-06-22T05:44:08;23.40;99.90
13389;DHT22;6764;53.250;10.410;2023-06-22T05:46:34;23.60;99.90
13389;DHT22;6764;53.250;10.410;2023-06-22T05:48:59;23.70;99.90
13389;DHT22;6764;53.250;10.410;2023-06-22T05:51:25;23.80;99.90
13389;DHT22;6764;53.250;10.410;2023-06-22T05:53:50;23.80;99.90
13389;DHT22;6764;53.250;10.410;2023-06-22T05:56:17;23.80;99.90
13389;DHT22;6764;53.250;10.410;2023-06-22T05:58:42;23.80;99.90
13389;DHT22;6764;53.250;10.410;2023-06-22T06:01:08;23.80;99.90
13389;DHT22;6764;53.250;10.410;2023-06-22T06:03:34;23.90;99.90
13389;DHT22;6764;53.250;10.410;2023-06-22T06:05:59;23.90;99.90
13389;DHT22;6764;53.250;10.410;2023-06-22T06:08:27;24.00;99.90
13389;DHT22;6764;53.250;10.410;2023-06-22T06:10:53;24.20;99.90
13389;DHT22;6764;53.250;10.410;2023-06-22T06:13:20;24.20;99.90
13389;DHT22;6764;53.250;10.410;2023-06-22T06:15:46;24.40;99.90
13389;DHT22;6764;53.250;10.410;2023-06-22T06:18:11;24.70;99.90
13389;DHT22;6764;53.250;10.410;2023-06-22T06:20:37;24.80;99.90
13389;DHT22;6764;53.250;10.410;2023-06-22T06:23:03;25.00;99.90
13389;DHT22;6764;53.250;10.410;2023-06-22T06:25:28;25.10;99.90
13389;DHT22;6764;53.250;10.410;2023-06-22T06:27:54;25.10;99.90
13389;DHT22;6764;53.250;10.410;2023-06-22T06:57:03;31.80;89.20
13389;DHT22;6764;53.250;10.410;2023-06-22T06:59:29;32.70;86.40
13389;DHT22;6764;53.250;10.410;2023-06-22T07:01:55;33.50;83.90
13389;DHT22;6764;53.250;10.410;2023-06-22T07:04:21;34.10;81.30
13389;DHT22;6764;53.250;10.410;2023-06-22T07:06:47;34.50;80.00
13389;DHT22;6764;53.250;10.410;2023-06-22T07:09:12;35.30;78.20
13389;DHT22;6764;53.250;10.410;2023-06-22T07:11:38;35.70;75.50
13389;DHT22;6764;53.250;10.410;2023-06-22T07:14:03;35.90;73.50
13389;DHT22;6764;53.250;10.410;2023-06-22T07:16:29;36.30;73.10
13389;DHT22;6764;53.250;10.410;2023-06-22T07:18:56;36.60;71.90
13389;DHT22;6764;53.250;10.410;2023-06-22T07:21:22;36.70;70.90
13389;DHT22;6764;53.250;10.410;2023-06-22T07:23:47;36.50;70.50
13389;DHT22;6764;53.250;10.410;2023-06-22T07:26:13;36.40;70.20
13389;DHT22;6764;53.250;10.410;2023-06-22T07:28:39;36.40;70.60
13389;DHT22;6764;53.250;10.410;2023-06-22T07:31:06;36.50;68.90
13389;DHT22;6764;53.250;10.410;2023-06-22T07:33:31;37.00;68.00
13389;DHT22;6764;53.250;10.410;2023-06-22T07:35:57;37.50;66.90
13389;DHT22;6764;53.250;10.410;2023-06-22T07:38:23;38.10;66.10
13389;DHT22;6764;53.250;10.410;2023-06-22T07:40:50;38.40;63.40
13389;DHT22;6764;53.250;10.410;2023-06-22T07:43:18;37.60;63.70
13389;DHT22;6764;53.250;10.410;2023-06-22T07:45:51;36.80;64.70
13389;DHT22;6764;53.250;10.410;2023-06-22T07:48:23;36.90;65.60
13389;DHT22;6764;53.250;10.410;2023-06-22T07:50:49;37.50;64.70
13389;DHT22;6764;53.250;10.410;2023-06-22T07:53:15;38.10;63.50
13389;DHT22;6764;53.250;10.410;2023-06-22T07:55:41;38.40;61.10
13389;DHT22;6764;53.250;10.410;2023-06-22T07:58:06;39.20;60.80
13389;DHT22;6764;53.250;10.410;2023-06-22T08:00:33;39.40;59.30
13389;DHT22;6764;53.250;10.410;2023-06-22T08:02:59;39.30;59.20
13389;DHT22;6764;53.250;10.410;2023-06-22T08:05:25;38.90;59.90
13389;DHT22;6764;53.250;10.410;2023-06-22T08:07:50;39.00;60.40
13389;DHT22;6764;53.250;10.410;2023-06-22T08:10:16;39.00;60.10
13389;DHT22;6764;53.250;10.410;2023-06-22T08:12:42;39.30;60.00
13389;DHT22;6764;53.250;10.410;2023-06-22T08:15:08;39.30;58.40
13389;DHT22;6764;53.250;10.410;2023-06-22T08:17:36;39.50;58.40
13389;DHT22;6764;53.250;10.410;2023-06-22T08:20:02;39.80;58.20
13389;DHT22;6764;53.250;10.410;2023-06-22T08:22:34;39.80;58.10
13389;DHT22;6764;53.250;10.410;2023-06-22T08:25:01;40.20;56.60
13389;DHT22;6764;53.250;10.410;2023-06-22T08:27:28;40.50;56.20
13389;DHT22;6764;53.250;10.410;2023-06-22T08:29:55;40.50;56.50
13389;DHT22;6764;53.250;10.410;2023-06-22T08:32:23;40.90;56.20
13389;DHT22;6764;53.250;10.410;2023-06-22T08:34:49;41.10;54.80
13389;DHT22;6764;53.250;10.410;2023-06-22T08:37:15;40.90;54.70
13389;DHT22;6764;53.250;10.410;2023-06-22T08:39:40;41.70;54.00
13389;DHT22;6764;53.250;10.410;2023-06-22T08:42:06;41.90;53.10
13389;DHT22;6764;53.250;10.410;2023-06-22T08:44:32;42.40;52.60
13389;DHT22;6764;53.250;10.410;2023-06-22T08:46:58;42.20;53.10
13389;DHT22;6764;53.250;10.410;2023-06-22T08:49:23;41.90;54.40
13389;DHT22;6764;53.250;10.410;2023-06-22T08:51:49;41.70;53.40
13389;DHT22;6764;53.250;10.410;2023-06-22T08:54:15;41.50;53.50
13389;DHT22;6764;53.250;10.410;2023-06-22T08:56:40;41.10;54.20
13389;DHT22;6764;53.250;10.410;2023-06-22T08:59:06;41.60;53.80
13389;DHT22;6764;53.250;10.410;2023-06-22T09:01:33;41.50;54.30
13389;DHT22;6764;53.250;10.410;2023-06-22T09:03:58;41.30;54.10
13389;DHT22;6764;53.250;10.410;2023-06-22T09:06:25;41.90;53.50
13389;DHT22;6764;53.250;10.410;2023-06-22T09:08:51;42.10;53.30
13389;DHT22;6764;53.250;10.410;2023-06-22T09:11:17;42.30;52.40
13389;DHT22;6764;53.250;10.410;2023-06-22T09:13:42;41.90;52.90
13389;DHT22;6764;53.250;10.410;2023-06-22T09:16:09;41.30;53.50
13389;DHT22;6764;53.250;10.410;2023-06-22T09:18:34;41.50;53.10
13389;DHT22;6764;53.250;10.410;2023-06-22T09:21:01;41.40;53.40
13389;DHT22;6764;53.250;10.410;2023-06-22T09:23:27;41.60;53.30
13389;DHT22;6764;53.250;10.410;2023-06-22T09:25:53;42.00;52.90
13389;DHT22;6764;53.250;10.410;2023-06-22T09:28:18;41.00;52.20
13389;DHT22;6764;53.250;10.410;2023-06-22T09:30:44;39.40;53.80
13389;DHT22;6764;53.250;10.410;2023-06-22T09:33:10;38.20;55.20
13389;DHT22;6764;53.250;10.410;2023-06-22T09:35:35;37.50;57.10
13389;DHT22;6764;53.250;10.410;2023-06-22T09:38:01;37.70;56.80
13389;DHT22;6764;53.250;10.410;2023-06-22T09:40:27;38.40;56.30
13389;DHT22;6764;53.250;10.410;2023-06-22T09:42:52;38.40;56.50
13389;DHT22;6764;53.250;10.410;2023-06-22T09:45:18;37.80;55.70
13389;DHT22;6764;53.250;10.410;2023-06-22T09:47:43;37.20;56.90
13389;DHT22;6764;53.250;10.410;2023-06-22T09:50:09;37.30;56.70
13389;DHT22;6764;53.250;10.410;2023-06-22T09:52:35;37.00;56.50
13389;DHT22;6764;53.250;10.410;2023-06-22T09:55:01;37.60;57.30
13389;DHT22;6764;53.250;10.410;2023-06-22T09:57:26;38.60;55.50
13389;DHT22;6764;53.250;10.410;2023-06-22T09:59:52;39.50;54.80
13389;DHT22;6764;53.250;10.410;2023-06-22T10:02:17;39.70;53.70
13389;DHT22;6764;53.250;10.410;2023-06-22T10:04:43;40.10;53.00
13389;DHT22;6764;53.250;10.410;2023-06-22T10:07:08;40.50;51.90
13389;DHT22;6764;53.250;10.410;2023-06-22T10:09:34;41.00;51.60
13389;DHT22;6764;53.250;10.410;2023-06-22T10:12:00;40.70;51.60
13389;DHT22;6764;53.250;10.410;2023-06-22T10:14:25;41.40;51.10
13389;DHT22;6764;53.250;10.410;2023-06-22T10:16:52;41.30;50.40
13389;DHT22;6764;53.250;10.410;2023-06-22T10:19:18;41.30;50.90
13389;DHT22;6764;53.250;10.410;2023-06-22T10:21:44;41.30;50.90
13389;DHT22;6764;53.250;10.410;2023-06-22T10:24:09;40.80;50.40
13389;DHT22;6764;53.250;10.410;2023-06-22T10:26:36;41.00;50.70
13389;DHT22;6764;53.250;10.410;2023-06-22T10:29:04;40.90;50.70
13389;DHT22;6764;53.250;10.410;2023-06-22T10:31:30;40.00;51.60
13389;DHT22;6764;53.250;10.410;2023-06-22T10:33:56;39.80;53.30
13389;DHT22;6764;53.250;10.410;2023-06-22T10:36:22;40.00;52.60
13389;DHT22;6764;53.250;10.410;2023-06-22T10:38:48;39.90;52.60
13389;DHT22;6764;53.250;10.410;2023-06-22T10:41:14;39.40;52.70
13389;DHT22;6764;53.250;10.410;2023-06-22T10:43:39;39.30;52.60
13389;DHT22;6764;53.250;10.410;2023-06-22T10:46:06;38.70;53.70
13389;DHT22;6764;53.250;10.410;2023-06-22T10:48:32;38.20;54.70
13389;DHT22;6764;53.250;10.410;2023-06-22T10:50:58;37.80;54.80
13389;DHT22;6764;53.250;10.410;2023-06-22T10:53:24;37.20;56.10
13389;DHT22;6764;53.250;10.410;2023-06-22T10:55:50;36.90;56.80
13389;DHT22;6764;53.250;10.410;2023-06-22T10:58:18;36.60;57.80
13389;DHT22;6764;53.250;10.410;2023-06-22T11:00:44;36.60;57.70
13389;DHT22;6764;53.250;10.410;2023-06-22T11:03:10;36.40;57.40
13389;DHT22;6764;53.250;10.410;2023-06-22T11:05:36;35.20;59.00
13389;DHT22;6764;53.250;10.410;2023-06-22T11:08:01;35.10;60.10
13389;DHT22;6764;53.250;10.410;2023-06-22T11:10:27;35.10;60.30
13389;DHT22;6764;53.250;10.410;2023-06-22T11:12:53;34.90;59.90
13389;DHT22;6764;53.250;10.410;2023-06-22T11:15:18;34.60;60.40
13389;DHT22;6764;53.250;10.410;2023-06-22T11:17:44;34.60;60.90
13389;DHT22;6764;53.250;10.410;2023-06-22T11:20:10;34.60;61.40
13389;DHT22;6764;53.250;10.410;2023-06-22T11:22:42;34.40;61.50
13389;DHT22;6764;53.250;10.410;2023-06-22T11:25:08;34.20;62.30
13389;DHT22;6764;53.250;10.410;2023-06-22T11:27:34;34.30;62.10
13389;DHT22;6764;53.250;10.410;2023-06-22T11:30:00;34.30;62.90
13389;DHT22;6764;53.250;10.410;2023-06-22T11:32:25;34.30;62.40
13389;DHT22;6764;53.250;10.410;2023-06-22T11:34:51;34.40;62.40
13389;DHT22;6764;53.250;10.410;2023-06-22T11:37:16;34.60;62.30
13389;DHT22;6764;53.250;10.410;2023-06-22T11:39:42;34.70;61.80
13389;DHT22;6764;53.250;10.410;2023-06-22T11:42:09;34.60;61.70
13389;DHT22;6764;53.250;10.410;2023-06-22T11:44:35;34.50;62.60
13389;DHT22;6764;53.250;10.410;2023-06-22T11:47:00;34.60;62.20
13389;DHT22;6764;53.250;10.410;2023-06-22T11:49:28;34.40;62.00
13389;DHT22;6764;53.250;10.410;2023-06-22T11:51:54;34.20;62.20
13389;DHT22;6764;53.250;10.410;2023-06-22T11:54:19;34.10;62.70
13389;DHT22;6764;53.250;10.410;2023-06-22T11:56:45;34.00;63.00
13389;DHT22;6764;53.250;10.410;2023-06-22T11:59:11;33.90;63.00
13389;DHT22;6764;53.250;10.410;2023-06-22T12:01:36;33.60;63.50
13389;DHT22;6764;53.250;10.410;2023-06-22T12:04:02;33.60;63.90
13389;DHT22;6764;53.250;10.410;2023-06-22T12:06:35;33.40;64.30
13389;DHT22;6764;53.250;10.410;2023-06-22T12:09:03;33.40;64.60
13389;DHT22;6764;53.250;10.410;2023-06-22T12:11:30;33.40;64.60
13389;DHT22;6764;53.250;10.410;2023-06-22T12:13:55;33.50;64.80
13389;DHT22;6764;53.250;10.410;2023-06-22T12:16:21;33.50;64.10
13389;DHT22;6764;53.250;10.410;2023-06-22T12:18:47;33.50;64.60
13389;DHT22;6764;53.250;10.410;2023-06-22T12:21:13;33.40;65.30
13389;DHT22;6764;53.250;10.410;2023-06-22T12:23:38;33.20;64.90
13389;DHT22;6764;53.250;10.410;2023-06-22T12:26:04;33.00;65.30
13389;DHT22;6764;53.250;10.410;2023-06-22T12:28:29;32.90;65.80
13389;DHT22;6764;53.250;10.410;2023-06-22T12:30:55;32.70;65.60
13389;DHT22;6764;53.250;10.410;2023-06-22T12:33:20;32.30;66.30
13389;DHT22;6764;53.250;10.410;2023-06-22T12:35:46;32.10;67.70
13389;DHT22;6764;53.250;10.410;2023-06-22T12:38:14;32.10;67.90
13389;DHT22;6764;53.250;10.410;2023-06-22T12:40:39;32.10;67.50
13389;DHT22;6764;53.250;10.410;2023-06-22T12:43:05;32.20;67.40
13389;DHT22;6764;53.250;10.410;2023-06-22T12:45:31;32.20;67.60
13389;DHT22;6764;53.250;10.410;2023-06-22T12:47:58;32.00;68.00
13389;DHT22;6764;53.250;10.410;2023-06-22T12:50:25;31.80;68.70
13389;DHT22;6764;53.250;10.410;2023-06-22T12:52:50;31.80;68.70
13389;DHT22;6764;53.250;10.410;2023-06-22T12:55:16;31.60;69.40
13389;DHT22;6764;53.250;10.410;2023-06-22T12:57:42;31.60;70.20
13389;DHT22;6764;53.250;10.410;2023-06-22T13:00:08;31.70;70.20
13389;DHT22;6764;53.250;10.410;2023-06-22T13:02:36;31.60;70.20
13389;DHT22;6764;53.250;10.410;2023-06-22T13:05:02;31.60;70.70
13389;DHT22;6764;53.250;10.410;2023-06-22T13:07:30;31.50;71.40
13389;DHT22;6764;53.250;10.410;2023-06-22T13:09:56;31.40;71.70
13389;DHT22;6764;53.250;10.410;2023-06-22T13:12:21;31.40;72.30
13389;DHT22;6764;53.250;10.410;2023-06-22T13:14:47;31.20;72.10
13389;DHT22;6764;53.250;10.410;2023-06-22T13:17:13;31.20;72.50
13389;DHT22;6764;53.250;10.410;2023-06-22T13:19:39;31.20;72.30
13389;DHT22;6764;53.250;10.410;2023-06-22T13:22:09;30.90;72.80
13389;DHT22;6764;53.250;10.410;2023-06-22T13:24:50;30.80;73.60
13389;DHT22;6764;53.250;10.410;2023-06-22T13:27:16;30.70;73.90
13389;DHT22;6764;53.250;10.410;2023-06-22T13:29:41;30.50;74.40
13389;DHT22;6764;53.250;10.410;2023-06-22T13:32:07;30.60;74.80
13389;DHT22;6764;53.250;10.410;2023-06-22T13:34:33;30.60;74.70
13389;DHT22;6764;53.250;10.410;2023-06-22T13:36:58;30.70;75.10
13389;DHT22;6764;53.250;10.410;2023-06-22T13:39:24;30.70;75.50
13389;DHT22;6764;53.250;10.410;2023-06-22T13:41:49;30.80;74.80
13389;DHT22;6764;53.250;10.410;2023-06-22T13:44:15;30.80;75.10
13389;DHT22;6764;53.250;10.410;2023-06-22T13:46:41;30.80;74.70
13389;DHT22;6764;53.250;10.410;2023-06-22T13:49:06;30.90;75.30
13389;DHT22;6764;53.250;10.410;2023-06-22T13:51:32;30.80;75.60
13389;DHT22;6764;53.250;10.410;2023-06-22T13:53:58;30.90;75.10
13389;DHT22;6764;53.250;10.410;2023-06-22T13:56:24;30.90;75.00
13389;DHT22;6764;53.250;10.410;2023-06-22T13:58:49;31.00;74.60
13389;DHT22;6764;53.250;10.410;2023-06-22T14:01:15;30.90;75.00
13389;DHT22;6764;53.250;10.410;2023-06-22T14:03:40;31.00;74.50
13389;DHT22;6764;53.250;10.410;2023-06-22T14:06:06;31.00;74.30
13389;DHT22;6764;53.250;10.410;2023-06-22T14:08:32;30.90;74.30
13389;DHT22;6764;53.250;10.410;2023-06-22T14:10:57;30.80;74.30
13389;DHT22;6764;53.250;10.410;2023-06-22T14:13:23;30.70;74.50
13389;DHT22;6764;53.250;10.410;2023-06-22T14:15:48;30.50;74.90
13389;DHT22;6764;53.250;10.410;2023-06-22T14:18:14;30.40;74.80
13389;DHT22;6764;53.250;10.410;2023-06-22T14:20:40;30.40;74.90
13389;DHT22;6764;53.250;10.410;2023-06-22T14:23:06;30.40;74.70
13389;DHT22;6764;53.250;10.410;2023-06-22T14:25:31;30.60;75.00
13389;DHT22;6764;53.250;10.410;2023-06-22T14:27:57;30.60;75.10
13389;DHT22;6764;53.250;10.410;2023-06-22T14:30:22;30.50;75.30
13389;DHT22;6764;53.250;10.410;2023-06-22T14:32:48;30.50;75.70
13389;DHT22;6764;53.250;10.410;2023-06-22T14:35:14;30.50;75.60
13389;DHT22;6764;53.250;10.410;2023-06-22T14:37:39;30.60;74.90
13389;DHT22;6764;53.250;10.410;2023-06-22T14:40:05;30.70;75.10
13389;DHT22;6764;53.250;10.410;2023-06-22T14:42:31;30.70;75.50
13389;DHT22;6764;53.250;10.410;2023-06-22T14:44:57;30.90;75.10
13389;DHT22;6764;53.250;10.410;2023-06-22T14:47:22;30.70;75.00
13389;DHT22;6764;53.250;10.410;2023-06-22T14:49:48;30.60;75.10
13389;DHT22;6764;53.250;10.410;2023-06-22T14:52:14;30.50;75.50
13389;DHT22;6764;53.250;10.410;2023-06-22T14:54:39;30.50;75.70
13389;DHT22;6764;53.250;10.410;2023-06-22T14:57:05;30.20;75.50
13389;DHT22;6764;53.250;10.410;2023-06-22T14:59:31;29.90;76.70
13389;DHT22;6764;53.250;10.410;2023-06-22T15:01:56;29.90;77.40
13389;DHT22;6764;53.250;10.410;2023-06-22T15:04:22;29.90;76.90
13389;DHT22;6764;53.250;10.410;2023-06-22T15:06:47;30.10;76.70
13389;DHT22;6764;53.250;10.410;2023-06-22T15:09:13;30.10;77.20
13389;DHT22;6764;53.250;10.410;2023-06-22T15:11:39;30.10;77.70
13389;DHT22;6764;53.250;10.410;2023-06-22T15:14:05;30.10;78.00
13389;DHT22;6764;53.250;10.410;2023-06-22T15:16:30;30.00;78.30
13389;DHT22;6764;53.250;10.410;2023-06-22T15:18:56;29.90;78.50
13389;DHT22;6764;53.250;10.410;2023-06-22T15:21:21;30.00;79.90
13389;DHT22;6764;53.250;10.410;2023-06-22T15:23:47;29.90;79.70
13389;DHT22;6764;53.250;10.410;2023-06-22T15:26:13;29.80;80.50
13389;DHT22;6764;53.250;10.410;2023-06-22T15:28:39;29.80;80.60
13389;DHT22;6764;53.250;10.410;2023-06-22T15:31:05;29.70;80.70
13389;DHT22;6764;53.250;10.410;2023-06-22T15:33:31;29.60;81.50
13389;DHT22;6764;53.250;10.410;2023-06-22T15:35:59;29.40;81.80
13389;DHT22;6764;53.250;10.410;2023-06-22T15:38:29;29.40;82.10
13389;DHT22;6764;53.250;10.410;2023-06-22T15:40:56;29.30;82.50
13389;DHT22;6764;53.250;10.410;2023-06-22T15:43:21;29.30;82.90
13389;DHT22;6764;53.250;10.410;2023-06-22T15:45:47;29.30;82.70
13389;DHT22;6764;53.250;10.410;2023-06-22T15:48:14;29.40;82.90
13389;DHT22;6764;53.250;10.410;2023-06-22T15:50:40;29.30;82.90
13389;DHT22;6764;53.250;10.410;2023-06-22T15:53:06;29.40;83.00
13389;DHT22;6764;53.250;10.410;2023-06-22T15:55:31;29.20;83.40
13389;DHT22;6764;53.250;10.410;2023-06-22T15:57:57;29.20;84.00
13389;DHT22;6764;53.250;10.410;2023-06-22T16:00:23;29.10;84.10